Terminal Aerodrome Forecast
Issued by NWS Caribou, ME

Home | Current Version | Previous Version | Text Only | Print | Product List | Glossary On
Versions: 1 2 3 4 5 6 7 8 9 10 11 12 13 14
000
FTUS41 KCAR 230208 AAB
TAFBGR
TAF AMD
KBGR 230208Z 2302/2324 14004KT P6SM BKN015
     FM230500 VRB03KT 5SM BR SCT007 BKN015
     FM230700 VRB03KT 3SM BR BKN006
     FM231200 VRB03KT 1SM BR BKN002
     FM231500 21005KT P6SM SCT008
     FM231700 20007KT P6SM SCT200=

USA.gov is the U.S. government's official web portal to all federal, state and local government web resources and services.